createdAt,value
2018-12-10T00:04:52.843Z,89.23
2018-12-10T00:09:57.194Z,88.84
2018-12-10T00:14:59.485Z,88.47
2018-12-10T00:20:01.719Z,89.02
2018-12-10T00:25:04.403Z,88.27
2018-12-10T00:30:07.819Z,87.34
2018-12-10T00:35:11.387Z,87.44
2018-12-10T00:40:13.659Z,86.03
2018-12-10T00:45:16.011Z,85.24
2018-12-10T00:50:18.249Z,84.86
2018-12-10T00:55:20.483Z,85.21
2018-12-10T01:00:22.871Z,84.41
2018-12-10T01:05:25.201Z,84.21
2018-12-10T01:10:27.487Z,85.59
2018-12-10T01:15:29.753Z,84.03
2018-12-10T01:20:32.211Z,82.66
2018-12-10T01:25:34.466Z,83.72
2018-12-10T01:30:36.706Z,83.51
2018-12-10T01:35:38.942Z,82.39
2018-12-10T01:40:41.285Z,83.96
2018-12-10T01:45:43.615Z,82.40
2018-12-10T01:50:45.871Z,82.70
2018-12-10T01:55:48.144Z,82.07
2018-12-10T02:00:50.500Z,82.09
2018-12-10T02:05:52.738Z,83.07
2018-12-10T02:10:55.099Z,83.08
2018-12-10T02:15:57.423Z,82.46
2018-12-10T02:20:59.783Z,82.61
2018-12-10T02:26:02.458Z,83.83
2018-12-10T02:31:04.950Z,84.90
2018-12-10T02:36:07.200Z,84.28
2018-12-10T02:41:09.435Z,83.01
2018-12-10T02:46:11.700Z,83.69
2018-12-10T02:51:13.995Z,83.40
2018-12-10T02:56:16.228Z,83.15
2018-12-10T03:01:18.511Z,84.14
2018-12-10T03:06:20.741Z,83.34
2018-12-10T03:11:23.163Z,83.66
2018-12-10T03:16:25.431Z,84.56
2018-12-10T03:21:27.708Z,82.24
2018-12-10T03:26:29.950Z,81.64
2018-12-10T03:31:32.182Z,81.66
2018-12-10T03:36:34.453Z,82.51
2018-12-10T03:41:36.696Z,82.98
2018-12-10T03:46:38.987Z,81.80
2018-12-10T03:51:41.224Z,81.97
2018-12-10T03:56:43.473Z,82.21
2018-12-10T04:01:45.948Z,81.21
2018-12-10T04:06:48.207Z,81.86
2018-12-10T04:11:50.457Z,82.33
2018-12-10T04:16:52.714Z,82.22
2018-12-10T04:21:55.390Z,81.27
2018-12-10T04:26:58.390Z,82.53
2018-12-10T04:32:00.619Z,83.38
2018-12-10T04:37:02.899Z,85.38
2018-12-10T04:42:05.181Z,85.49
2018-12-10T04:47:07.466Z,83.48
2018-12-10T04:52:10.055Z,84.16
2018-12-10T04:57:13.524Z,85.21
2018-12-10T05:02:16.956Z,85.94
2018-12-10T05:07:19.593Z,86.77
2018-12-10T05:12:21.889Z,85.68
2018-12-10T05:17:24.230Z,85.94
2018-12-10T05:22:26.455Z,85.56
2018-12-10T05:27:28.734Z,85.15
2018-12-10T05:32:30.992Z,84.37
2018-12-10T05:37:33.350Z,82.60
2018-12-10T05:42:35.658Z,82.50
2018-12-10T05:47:37.921Z,82.50
2018-12-10T05:52:40.523Z,82.51
2018-12-10T05:57:42.755Z,82.07
2018-12-10T06:02:45.209Z,82.87
2018-12-10T06:07:47.518Z,83.37
2018-12-10T06:12:49.844Z,84.70
2018-12-10T06:17:52.155Z,83.39
2018-12-10T06:22:54.493Z,83.20
2018-12-10T06:27:56.775Z,84.03
2018-12-10T06:32:59.026Z,83.95
2018-12-10T06:38:01.668Z,83.14
2018-12-10T06:43:03.970Z,84.13
2018-12-10T06:48:06.336Z,83.00
2018-12-10T06:53:08.628Z,82.79
2018-12-10T06:58:10.900Z,83.28
2018-12-10T07:03:13.193Z,81.95
2018-12-10T07:08:15.513Z,82.27
2018-12-10T07:13:17.899Z,81.34
2018-12-10T07:18:20.179Z,81.51
2018-12-10T07:23:23.592Z,82.31
2018-12-10T07:28:26.164Z,81.82
2018-12-10T07:33:28.389Z,81.68
2018-12-10T07:38:30.622Z,83.88
2018-12-10T07:43:32.871Z,83.66
2018-12-10T07:48:35.174Z,83.13
2018-12-10T07:53:37.425Z,83.57
2018-12-10T07:58:39.659Z,85.12
2018-12-10T08:03:41.920Z,84.67
2018-12-10T08:08:44.142Z,85.19
2018-12-10T08:13:46.405Z,84.77
2018-12-10T08:18:48.681Z,85.55
2018-12-10T08:23:50.986Z,85.63
2018-12-10T08:29:00.017Z,85.88
2018-12-10T08:33:57.526Z,84.45
2018-12-10T08:39:00.057Z,85.23
2018-12-10T08:44:02.466Z,84.35
2018-12-10T08:49:04.823Z,83.71
2018-12-10T08:54:07.552Z,83.18
2018-12-10T08:59:09.841Z,82.50
2018-12-10T09:04:12.070Z,82.51
2018-12-10T09:09:15.330Z,82.49
2018-12-10T09:14:17.631Z,82.84
2018-12-10T09:19:20.139Z,82.82
2018-12-10T09:24:22.552Z,83.08
2018-12-10T09:29:25.008Z,83.20
2018-12-10T09:34:27.427Z,83.51
2018-12-10T09:39:30.276Z,84.58
2018-12-10T09:44:32.804Z,85.31
2018-12-10T09:49:35.155Z,84.62
2018-12-10T09:54:37.434Z,82.23
2018-12-10T09:59:39.782Z,81.99
2018-12-10T10:04:42.341Z,80.68
2018-12-10T10:09:44.569Z,81.75
2018-12-10T10:14:47.059Z,83.19
2018-12-10T10:19:49.499Z,83.33
2018-12-10T10:24:51.788Z,84.54
2018-12-10T10:29:54.061Z,86.07
2018-12-10T10:34:56.317Z,85.75
2018-12-10T10:39:58.585Z,88.15
2018-12-10T10:45:00.991Z,87.39
2018-12-10T10:50:03.582Z,87.37
2018-12-10T10:55:06.209Z,84.01
2018-12-10T11:00:16.773Z,81.25
2018-12-10T11:05:19.304Z,79.77
2018-12-10T11:10:21.584Z,77.29
2018-12-10T11:15:23.913Z,77.74
2018-12-10T11:20:26.394Z,77.79
2018-12-10T11:25:28.673Z,77.07
2018-12-10T11:30:30.946Z,75.50
2018-12-10T11:35:33.215Z,76.85
2018-12-10T11:40:35.482Z,75.62
2018-12-10T11:45:37.757Z,74.07
2018-12-10T11:50:40.135Z,75.17
2018-12-10T11:55:42.533Z,73.91
2018-12-10T12:00:45.035Z,74.61
2018-12-10T12:05:47.302Z,75.27
2018-12-10T12:10:49.564Z,73.73
2018-12-10T12:15:51.874Z,74.92
2018-12-10T12:20:54.198Z,71.64
2018-12-10T12:25:56.687Z,72.92
2018-12-10T12:30:59.004Z,71.09
2018-12-10T12:36:01.405Z,71.87
2018-12-10T12:41:03.861Z,72.61
2018-12-10T12:46:06.254Z,72.47
2018-12-10T12:51:08.590Z,72.98
2018-12-10T12:56:10.850Z,74.39
2018-12-10T13:01:13.143Z,73.91
2018-12-10T13:06:15.551Z,73.55
2018-12-10T13:11:17.869Z,74.88
2018-12-10T13:16:20.234Z,75.44
2018-12-10T13:21:22.565Z,74.28
2018-12-10T13:26:24.805Z,76.14
2018-12-10T13:31:27.035Z,83.60
2018-12-10T13:36:29.372Z,83.98
2018-12-10T13:41:31.939Z,82.59
2018-12-10T13:46:34.169Z,81.11
2018-12-10T13:51:36.449Z,80.72
2018-12-10T13:56:38.738Z,81.97
2018-12-10T14:01:41.000Z,80.63
2018-12-10T14:06:43.478Z,86.46
2018-12-10T14:11:45.873Z,85.34
2018-12-10T14:16:48.225Z,86.34
2018-12-10T14:21:50.583Z,87.75
2018-12-10T14:26:53.062Z,89.36
2018-12-10T14:31:56.804Z,90.37
2018-12-10T14:36:59.176Z,92.09
2018-12-10T14:42:01.479Z,91.18
2018-12-10T14:47:03.850Z,90.39
2018-12-10T14:52:06.239Z,91.09
2018-12-10T14:57:08.526Z,90.20
2018-12-10T15:02:10.757Z,89.39
2018-12-10T15:07:14.176Z,86.96
2018-12-10T15:12:16.820Z,81.98
2018-12-10T15:17:19.295Z,80.19
2018-12-10T15:22:22.299Z,78.74
2018-12-10T15:27:24.904Z,79.97
2018-12-10T15:32:27.212Z,78.63
2018-12-10T15:37:29.599Z,77.99
2018-12-10T15:42:31.991Z,76.85
2018-12-10T15:47:34.365Z,78.80
2018-12-10T15:52:36.772Z,78.24
2018-12-10T15:57:39.320Z,79.64
2018-12-10T16:02:42.880Z,82.17
2018-12-10T16:07:45.290Z,84.16
2018-12-10T16:12:47.902Z,84.23
2018-12-10T16:17:50.603Z,85.45
2018-12-10T16:22:55.782Z,87.02
2018-12-10T16:27:58.458Z,87.28
2018-12-10T16:33:01.045Z,86.98
2018-12-10T16:38:03.394Z,87.06
2018-12-10T16:43:05.702Z,87.42
2018-12-10T16:48:07.952Z,88.16
2018-12-10T16:53:17.094Z,87.46
2018-12-10T16:58:20.004Z,86.20
2018-12-10T17:03:22.301Z,85.49
2018-12-10T17:08:24.678Z,83.25
2018-12-10T17:13:28.193Z,84.18
2018-12-10T17:18:30.477Z,82.62
2018-12-10T17:23:32.874Z,83.55
2018-12-10T17:28:35.121Z,81.94
2018-12-10T17:33:37.908Z,83.06
2018-12-10T17:38:40.249Z,80.66
2018-12-10T17:43:42.473Z,79.45
2018-12-10T17:48:44.833Z,80.19
2018-12-10T17:53:47.449Z,80.10
2018-12-10T17:58:50.117Z,81.05
2018-12-10T18:03:52.468Z,79.77
2018-12-10T18:08:55.779Z,80.97
2018-12-10T18:13:58.038Z,80.32
2018-12-10T18:19:00.273Z,79.65
2018-12-10T18:24:02.781Z,80.35
2018-12-10T18:29:05.113Z,80.61
2018-12-10T18:34:07.432Z,79.47
2018-12-10T18:39:10.071Z,80.68
2018-12-10T18:44:14.627Z,80.88
2018-12-10T18:49:17.532Z,80.18
2018-12-10T18:54:19.858Z,79.98
2018-12-10T18:59:22.130Z,79.00
2018-12-10T19:04:24.357Z,79.49
2018-12-10T19:09:29.365Z,79.49
2018-12-10T19:14:33.409Z,78.88
2018-12-10T19:19:36.802Z,80.18
2018-12-10T19:24:39.192Z,80.49
2018-12-10T19:29:42.005Z,80.72
2018-12-10T19:34:44.339Z,81.01
2018-12-10T19:39:46.899Z,81.62
2018-12-10T19:44:49.585Z,81.56
2018-12-10T19:49:53.367Z,82.02
2018-12-10T19:54:56.474Z,82.11
2018-12-10T19:59:58.775Z,81.46
2018-12-10T20:05:01.076Z,82.56
2018-12-10T20:10:04.645Z,82.65
2018-12-10T20:15:09.131Z,81.98
2018-12-10T20:20:11.711Z,82.12
2018-12-10T20:25:14.964Z,81.91
2018-12-10T20:30:17.444Z,81.52
2018-12-10T20:35:21.275Z,82.36
2018-12-10T20:40:23.637Z,82.49
2018-12-10T20:45:26.050Z,82.07
2018-12-10T20:50:28.338Z,81.89
2018-12-10T20:55:30.771Z,81.82
2018-12-10T21:00:33.129Z,81.12
2018-12-10T21:05:40.219Z,81.84
2018-12-10T21:10:42.492Z,82.44
2018-12-10T21:15:44.793Z,82.48
2018-12-10T21:20:47.256Z,82.58
2018-12-10T21:25:49.846Z,82.83
2018-12-10T21:30:52.204Z,83.09
2018-12-10T21:35:54.494Z,82.61
2018-12-10T21:40:56.790Z,83.15
2018-12-10T21:45:59.137Z,83.87
2018-12-10T21:51:01.553Z,84.33
2018-12-10T21:56:04.026Z,84.48
2018-12-10T22:01:06.305Z,84.76
2018-12-10T22:06:10.349Z,85.22
2018-12-10T22:11:12.664Z,84.90
2018-12-10T22:16:14.964Z,84.67
2018-12-10T22:21:17.203Z,85.85
2018-12-10T22:26:19.547Z,85.74
2018-12-10T22:31:21.775Z,85.21
2018-12-10T22:36:24.024Z,85.55
2018-12-10T22:41:26.313Z,85.60
2018-12-10T22:46:28.538Z,85.15
2018-12-10T22:51:30.765Z,85.32
2018-12-10T22:56:33.208Z,85.13
2018-12-10T23:01:35.619Z,86.90
2018-12-10T23:06:37.860Z,87.75
2018-12-10T23:11:40.149Z,88.28
2018-12-10T23:16:42.430Z,88.74
2018-12-10T23:21:44.826Z,86.85
2018-12-10T23:26:47.170Z,87.44
2018-12-10T23:31:49.442Z,86.60
2018-12-10T23:36:51.770Z,87.16
2018-12-10T23:41:54.189Z,87.23
2018-12-10T23:46:56.457Z,86.89
2018-12-10T23:51:58.729Z,86.74
2018-12-10T23:57:01.136Z,87.27
